createdAt,value
2019-03-28T00:02:08.949Z,100543.11
2019-03-28T00:04:35.761Z,100534.36
2019-03-28T00:07:02.556Z,100534.67
2019-03-28T00:09:29.430Z,100535.22
2019-03-28T00:11:56.231Z,100541.70
2019-03-28T00:14:23.004Z,100542.25
2019-03-28T00:16:50.168Z,100543.94
2019-03-28T00:19:17.091Z,100543.38
2019-03-28T00:21:43.962Z,100546.01
2019-03-28T00:24:12.972Z,100549.31
2019-03-28T00:26:40.214Z,100549.31
2019-03-28T00:29:06.977Z,100546.68
2019-03-28T00:31:33.947Z,100546.01
2019-03-28T00:34:02.674Z,100544.76
2019-03-28T00:36:29.490Z,100541.16
2019-03-28T00:38:56.461Z,100528.44
2019-03-28T00:41:23.552Z,100537.85
2019-03-28T00:43:51.329Z,100540.05
2019-03-28T00:46:18.149Z,100541.16
2019-03-28T00:48:44.925Z,100533.97
2019-03-28T00:51:11.912Z,100537.27
2019-03-28T00:53:39.319Z,100539.23
2019-03-28T00:56:06.377Z,100532.02
2019-03-28T00:58:33.252Z,100533.15
2019-03-28T01:01:00.064Z,100533.70
2019-03-28T01:03:26.826Z,100523.31
2019-03-28T01:05:53.589Z,100525.38
2019-03-28T01:08:20.417Z,100518.75
2019-03-28T01:10:47.396Z,100523.58
2019-03-28T01:13:14.902Z,100514.87
2019-03-28T01:15:41.718Z,100519.03
2019-03-28T01:18:08.569Z,100515.14
2019-03-28T01:20:35.943Z,100510.31
2019-03-28T01:23:03.027Z,100521.77
2019-03-28T01:25:29.793Z,100516.50
2019-03-28T01:27:56.581Z,100516.23
2019-03-28T01:30:23.507Z,100512.07
2019-03-28T01:32:51.001Z,100510.97
2019-03-28T01:35:17.826Z,100507.13
2019-03-28T01:37:44.587Z,100507.52
2019-03-28T01:40:11.509Z,100511.52
2019-03-28T01:42:38.294Z,100507.94
2019-03-28T01:45:05.387Z,100505.03
2019-03-28T01:47:32.272Z,100509.43
2019-03-28T01:49:59.045Z,100505.70
2019-03-28T01:52:25.864Z,100514.01
2019-03-28T01:54:52.797Z,100509.85
2019-03-28T01:57:19.803Z,100507.06
2019-03-28T01:59:46.659Z,100515.94
2019-03-28T02:02:13.483Z,100509.15
2019-03-28T02:04:40.236Z,100509.03
2019-03-28T02:07:07.325Z,100504.72
2019-03-28T02:09:34.146Z,100503.77
2019-03-28T02:12:00.949Z,100496.55
2019-03-28T02:14:27.725Z,100494.61
2019-03-28T02:16:54.729Z,100495.70
2019-03-28T02:19:21.473Z,100489.33
2019-03-28T02:21:48.541Z,100486.70
2019-03-28T02:24:16.371Z,100477.00
2019-03-28T02:26:43.086Z,100483.91
2019-03-28T02:29:09.873Z,100479.62
2019-03-28T02:31:36.717Z,100486.26
2019-03-28T02:34:03.536Z,100485.43
2019-03-28T02:36:30.283Z,100486.80
2019-03-28T02:38:57.113Z,100487.40
2019-03-28T02:41:24.053Z,100483.78
2019-03-28T02:43:50.784Z,100483.63
2019-03-28T02:46:17.499Z,100485.02
2019-03-28T02:48:44.325Z,100489.30
2019-03-28T02:51:11.267Z,100485.41
2019-03-28T02:53:39.556Z,100497.86
2019-03-28T02:56:06.483Z,100488.86
2019-03-28T02:58:33.368Z,100486.80
2019-03-28T03:01:00.176Z,100484.04
2019-03-28T03:03:26.983Z,100481.25
2019-03-28T03:05:53.789Z,100495.11
2019-03-28T03:08:20.526Z,100491.78
2019-03-28T03:10:47.361Z,100490.95
2019-03-28T03:13:14.160Z,100489.84
2019-03-28T03:15:40.886Z,100492.59
2019-03-28T03:18:08.487Z,100496.62
2019-03-28T03:20:35.560Z,100486.23
2019-03-28T03:23:02.400Z,100480.97
2019-03-28T03:25:29.364Z,100486.77
2019-03-28T03:27:58.391Z,100484.84
2019-03-28T03:30:25.742Z,100485.38
2019-03-28T03:32:52.583Z,100480.94
2019-03-28T03:35:19.567Z,100480.11
2019-03-28T03:37:46.293Z,100483.28
2019-03-28T03:40:13.042Z,100475.83
2019-03-28T03:42:39.899Z,100487.30
2019-03-28T03:45:07.160Z,100474.15
2019-03-28T03:47:33.848Z,100482.58
2019-03-28T03:50:00.620Z,100473.45
2019-03-28T03:52:27.440Z,100481.06
2019-03-28T03:54:54.911Z,100485.05
2019-03-28T03:57:21.682Z,100478.11
2019-03-28T03:59:48.402Z,100485.05
2019-03-28T04:02:15.453Z,100479.79
2019-03-28T04:04:42.396Z,100476.74
2019-03-28T04:07:09.302Z,100472.66
2019-03-28T04:09:36.214Z,100467.14
2019-03-28T04:12:03.154Z,100466.83
2019-03-28T04:14:30.002Z,100475.16
2019-03-28T04:16:57.412Z,100467.69
2019-03-28T04:19:24.276Z,100479.16
2019-03-28T04:21:51.024Z,100479.16
2019-03-28T04:24:17.963Z,100476.81
2019-03-28T04:26:44.922Z,100471.55
2019-03-28T04:29:12.232Z,100478.08
2019-03-28T04:31:39.276Z,100476.56
2019-03-28T04:34:07.795Z,100481.88
2019-03-28T04:36:34.892Z,100481.72
2019-03-28T04:39:01.729Z,100483.39
2019-03-28T04:41:28.545Z,100491.28
2019-03-28T04:43:56.057Z,100484.09
2019-03-28T04:46:23.075Z,100487.17
2019-03-28T04:48:50.814Z,100495.73
2019-03-28T04:51:17.840Z,100488.02
2019-03-28T04:53:44.612Z,100489.39
2019-03-28T04:56:12.661Z,100498.25
2019-03-28T04:58:44.736Z,100503.23
2019-03-28T05:01:09.562Z,100507.08
2019-03-28T05:03:36.753Z,100505.98
2019-03-28T05:06:03.588Z,100500.72
2019-03-28T05:08:30.478Z,100509.03
2019-03-28T05:10:58.738Z,100509.87
2019-03-28T05:13:25.863Z,100511.52
2019-03-28T05:15:54.643Z,100507.39
2019-03-28T05:18:21.843Z,100503.09
2019-03-28T05:20:48.871Z,100510.98
2019-03-28T05:23:15.683Z,100509.61
2019-03-28T05:25:42.485Z,100506.86
2019-03-28T05:28:09.662Z,100513.61
2019-03-28T05:30:36.957Z,100515.95
2019-03-28T05:33:05.817Z,100507.80
2019-03-28T05:35:34.560Z,100512.11
2019-03-28T05:38:02.808Z,100517.92
2019-03-28T05:40:29.623Z,100514.86
2019-03-28T05:42:56.410Z,100517.38
2019-03-28T05:45:25.025Z,100514.59
2019-03-28T05:47:51.961Z,100510.98
2019-03-28T05:50:18.977Z,100505.16
2019-03-28T05:52:45.815Z,100512.51
2019-03-28T05:55:12.678Z,100510.14
2019-03-28T05:57:39.531Z,100515.83
2019-03-28T06:00:06.583Z,100527.85
2019-03-28T06:02:33.386Z,100528.12
2019-03-28T06:05:00.614Z,100533.95
2019-03-28T06:07:27.764Z,100535.61
2019-03-28T06:09:54.587Z,100529.24
2019-03-28T06:12:21.401Z,100510.97
2019-03-28T06:14:48.198Z,100505.98
2019-03-28T06:17:15.330Z,100508.22
2019-03-28T06:19:42.069Z,100504.05
2019-03-28T06:22:10.466Z,100511.23
2019-03-28T06:24:37.630Z,100512.05
2019-03-28T06:27:05.605Z,100521.08
2019-03-28T06:29:33.507Z,100526.17
2019-03-28T06:32:00.552Z,100525.05
2019-03-28T06:34:27.976Z,100517.55
2019-03-28T06:36:54.922Z,100517.55
2019-03-28T06:39:23.530Z,100517.83
2019-03-28T06:41:52.519Z,100525.86
2019-03-28T06:44:19.620Z,100516.95
2019-03-28T06:46:47.087Z,100529.95
2019-03-28T06:49:14.472Z,100526.62
2019-03-28T06:51:41.207Z,100525.80
2019-03-28T06:54:08.294Z,100534.11
2019-03-28T06:56:35.948Z,100531.35
2019-03-28T06:59:06.940Z,100539.34
2019-03-28T07:01:33.794Z,100545.59
2019-03-28T07:04:20.075Z,100542.11
2019-03-28T07:06:48.867Z,100545.41
2019-03-28T07:09:37.085Z,100543.47
2019-03-28T07:12:23.292Z,100543.19
2019-03-28T07:15:08.341Z,100537.92
2019-03-28T07:17:43.465Z,100535.03
2019-03-28T07:20:10.472Z,100532.11
2019-03-28T07:22:37.604Z,100542.64
2019-03-28T07:25:05.524Z,100535.95
2019-03-28T07:27:32.725Z,100537.34
2019-03-28T07:30:01.534Z,100545.53
2019-03-28T07:32:28.454Z,100545.62
2019-03-28T07:34:55.423Z,100547.55
2019-03-28T07:37:24.083Z,100551.67
2019-03-28T07:39:51.515Z,100550.27
2019-03-28T07:42:20.147Z,100547.18
2019-03-28T07:45:04.770Z,100558.13
2019-03-28T07:48:03.339Z,100555.20
2019-03-28T07:50:33.284Z,100560.18
2019-03-28T07:52:59.283Z,100564.54
2019-03-28T07:55:26.585Z,100557.04
2019-03-28T07:57:53.534Z,100555.39
2019-03-28T08:00:20.896Z,100564.59
2019-03-28T08:02:48.072Z,100561.66
2019-03-28T08:05:16.761Z,100565.26
2019-03-28T08:07:45.590Z,100572.45
2019-03-28T08:10:15.044Z,100568.87
2019-03-28T08:12:43.737Z,100571.97
2019-03-28T08:15:18.476Z,100565.31
2019-03-28T08:18:03.288Z,100557.05
2019-03-28T08:20:48.434Z,100557.16
2019-03-28T08:23:46.930Z,100550.14
2019-03-28T08:26:31.769Z,100556.39
2019-03-28T08:29:16.790Z,100571.39
2019-03-28T08:31:45.901Z,100561.30
2019-03-28T08:34:12.766Z,100566.39
2019-03-28T08:36:39.678Z,100552.86
2019-03-28T08:39:06.652Z,100562.81
2019-03-28T08:41:33.412Z,100571.89
2019-03-28T08:44:00.152Z,100573.97
2019-03-28T08:46:27.124Z,100569.86
2019-03-28T08:48:54.000Z,100579.42
2019-03-28T08:51:20.882Z,100578.30
2019-03-28T08:53:48.099Z,100580.23
2019-03-28T08:56:14.999Z,100581.67
2019-03-28T08:58:41.770Z,100593.88
2019-03-28T09:01:08.603Z,100593.02
2019-03-28T09:03:35.464Z,100589.03
2019-03-28T09:06:02.191Z,100584.27
2019-03-28T09:08:28.955Z,100588.73
2019-03-28T09:10:56.363Z,100590.45
2019-03-28T09:13:23.273Z,100581.93
2019-03-28T09:15:50.045Z,100586.91
2019-03-28T09:18:16.937Z,100591.92
2019-03-28T09:20:43.651Z,100588.45
2019-03-28T09:23:10.424Z,100592.05
2019-03-28T09:25:37.281Z,100592.33
2019-03-28T09:28:04.018Z,100592.67
2019-03-28T09:30:47.381Z,100592.87
2019-03-28T09:33:03.864Z,100591.12
2019-03-28T09:35:30.634Z,100584.90
2019-03-28T09:37:57.414Z,100586.55
2019-03-28T09:40:24.193Z,100593.17
2019-03-28T09:42:50.924Z,100593.83
2019-03-28T09:45:17.752Z,100587.39
2019-03-28T09:47:44.479Z,100588.45
2019-03-28T09:50:11.463Z,100597.23
2019-03-28T09:52:38.244Z,100590.41
2019-03-28T09:55:05.072Z,100588.73
2019-03-28T09:57:31.941Z,100583.36
2019-03-28T09:59:58.701Z,100582.77
2019-03-28T10:02:25.419Z,100585.61
2019-03-28T10:04:52.263Z,100581.47
2019-03-28T10:07:18.933Z,100567.66
2019-03-28T10:09:46.272Z,100565.69
2019-03-28T10:12:13.120Z,100558.10
2019-03-28T10:14:39.913Z,100560.75
2019-03-28T10:17:06.679Z,100573.30
2019-03-28T10:19:33.562Z,100574.62
2019-03-28T10:22:00.365Z,100586.22
2019-03-28T10:24:27.197Z,100582.89
2019-03-28T10:26:55.187Z,100580.39
2019-03-28T10:29:21.937Z,100579.42
2019-03-28T10:31:48.719Z,100586.21
2019-03-28T10:34:15.467Z,100582.27
2019-03-28T10:36:42.335Z,100578.45
2019-03-28T10:39:09.215Z,100574.97
2019-03-28T10:41:38.286Z,100576.61
2019-03-28T10:44:04.642Z,100575.48
2019-03-28T10:46:31.449Z,100570.66
2019-03-28T10:48:58.307Z,100567.34
2019-03-28T10:51:25.048Z,100567.28
2019-03-28T10:53:51.844Z,100563.33
2019-03-28T10:56:23.363Z,100567.47
2019-03-28T10:58:47.703Z,100563.53
2019-03-28T11:01:16.644Z,100571.81
2019-03-28T11:03:43.291Z,100573.80
2019-03-28T11:06:10.225Z,100577.24
2019-03-28T11:08:37.102Z,100580.72
2019-03-28T11:11:03.943Z,100579.23
2019-03-28T11:13:30.867Z,100581.05
2019-03-28T11:15:57.753Z,100577.88
2019-03-28T11:18:24.634Z,100580.23
2019-03-28T11:20:53.354Z,100584.06
2019-03-28T11:23:20.128Z,100581.23
2019-03-28T11:25:46.931Z,100580.56
2019-03-28T11:28:13.766Z,100583.24
2019-03-28T11:30:40.501Z,100585.22
2019-03-28T11:33:07.265Z,100584.89
2019-03-28T11:35:34.007Z,100581.23
2019-03-28T11:38:00.795Z,100576.91
2019-03-28T11:40:27.657Z,100583.06
2019-03-28T11:42:54.396Z,100579.08
2019-03-28T11:45:21.251Z,100575.75
2019-03-28T11:47:48.115Z,100578.22
2019-03-28T11:50:17.168Z,100577.84
2019-03-28T11:52:43.550Z,100570.23
2019-03-28T11:55:10.770Z,100573.66
2019-03-28T11:57:39.664Z,100577.47
2019-03-28T12:00:11.718Z,100575.82
2019-03-28T12:02:38.534Z,100579.19
2019-03-28T12:05:05.784Z,100572.20
2019-03-28T12:07:32.768Z,100570.27
2019-03-28T12:09:59.553Z,100566.95
2019-03-28T12:12:26.937Z,100570.66
2019-03-28T12:14:53.710Z,100575.45
2019-03-28T12:17:20.483Z,100572.77
2019-03-28T12:19:47.402Z,100580.56
2019-03-28T12:22:14.366Z,100575.29
2019-03-28T12:24:41.110Z,100581.25
2019-03-28T12:27:08.118Z,100589.55
2019-03-28T12:29:35.892Z,100590.36
2019-03-28T12:32:13.338Z,100587.77
2019-03-28T12:34:31.934Z,100584.11
2019-03-28T12:36:58.680Z,100600.59
2019-03-28T12:39:25.694Z,100596.56
2019-03-28T12:41:52.407Z,100595.86
2019-03-28T12:44:19.237Z,100601.47
2019-03-28T12:46:46.189Z,100597.09
2019-03-28T12:49:12.994Z,100593.77
2019-03-28T12:51:39.726Z,100589.98
2019-03-28T12:54:06.506Z,100585.41
2019-03-28T12:56:33.362Z,100594.22
2019-03-28T12:59:00.184Z,100584.16
2019-03-28T13:01:26.968Z,100587.32
2019-03-28T13:03:53.683Z,100588.84
2019-03-28T13:06:22.820Z,100587.25
2019-03-28T13:08:53.362Z,100590.16
2019-03-28T13:11:20.264Z,100593.80
2019-03-28T13:13:47.205Z,100596.30
2019-03-28T13:16:13.995Z,100592.51
2019-03-28T13:18:45.326Z,100588.70
2019-03-28T13:21:14.191Z,100587.57
2019-03-28T13:23:41.224Z,100575.30
2019-03-28T13:26:09.371Z,100575.64
2019-03-28T13:28:36.243Z,100576.27
2019-03-28T13:31:03.194Z,100574.59
2019-03-28T13:33:30.687Z,100577.95
2019-03-28T13:35:57.646Z,100584.89
2019-03-28T13:38:24.474Z,100580.72
2019-03-28T13:40:51.697Z,100586.20
2019-03-28T13:43:20.975Z,100583.91
2019-03-28T13:45:53.656Z,100589.20
2019-03-28T13:48:20.892Z,100590.20
2019-03-28T13:50:47.969Z,100587.38
2019-03-28T13:53:14.809Z,100580.25
2019-03-28T13:55:41.562Z,100578.94
2019-03-28T13:58:08.316Z,100581.88
2019-03-28T14:00:35.356Z,100585.05
2019-03-28T14:03:02.152Z,100588.19
2019-03-28T14:05:28.964Z,100585.50
2019-03-28T14:07:55.888Z,100584.49
2019-03-28T14:10:22.682Z,100589.57
2019-03-28T14:12:49.388Z,100583.77
2019-03-28T14:15:16.166Z,100585.91
2019-03-28T14:17:43.068Z,100577.13
2019-03-28T14:20:09.791Z,100575.14
2019-03-28T14:22:36.706Z,100569.84
2019-03-28T14:25:06.478Z,100578.77
2019-03-28T14:27:33.211Z,100560.55
2019-03-28T14:30:00.158Z,100565.22
2019-03-28T14:32:28.078Z,100576.50
2019-03-28T14:34:55.563Z,100571.88
2019-03-28T14:37:22.453Z,100571.53
2019-03-28T14:39:49.465Z,100574.41
2019-03-28T14:42:19.502Z,100574.41
2019-03-28T14:44:45.452Z,100567.77
2019-03-28T14:47:12.205Z,100569.26
2019-03-28T14:49:39.175Z,100570.23
2019-03-28T14:52:05.950Z,100568.06
2019-03-28T14:54:32.681Z,100568.58
2019-03-28T14:56:59.594Z,100577.84
2019-03-28T14:59:32.462Z,100572.20
2019-03-28T15:01:55.150Z,100565.79
2019-03-28T15:04:21.916Z,100572.80
2019-03-28T15:06:48.658Z,100581.26
2019-03-28T15:09:15.407Z,100585.89
2019-03-28T15:11:42.192Z,100581.41
2019-03-28T15:14:08.919Z,100584.22
2019-03-28T15:16:35.654Z,100582.55
2019-03-28T15:19:02.407Z,100580.88
2019-03-28T15:21:29.129Z,100591.47
2019-03-28T15:23:55.961Z,100588.52
2019-03-28T15:26:22.758Z,100596.13
2019-03-28T15:28:49.486Z,100592.81
2019-03-28T15:31:16.312Z,100591.17
2019-03-28T15:33:43.144Z,100591.02
2019-03-28T15:36:09.974Z,100594.28
2019-03-28T15:38:36.734Z,100597.78
2019-03-28T15:41:03.510Z,100597.94
2019-03-28T15:43:30.325Z,100600.44
2019-03-28T15:45:57.076Z,100601.07
2019-03-28T15:48:23.916Z,100599.87
2019-03-28T15:50:50.752Z,100602.38
2019-03-28T15:53:17.492Z,100611.64
2019-03-28T15:55:44.272Z,100610.00
2019-03-28T15:58:22.663Z,100610.33
2019-03-28T16:00:39.767Z,100610.15
2019-03-28T16:03:06.577Z,100626.91
2019-03-28T16:05:33.457Z,100617.61
2019-03-28T16:08:01.050Z,100623.89
2019-03-28T16:10:28.093Z,100634.16
2019-03-28T16:12:54.934Z,100628.89
2019-03-28T16:15:22.432Z,100636.17
2019-03-28T16:17:49.729Z,100634.34
2019-03-28T16:20:16.480Z,100633.37
2019-03-28T16:22:43.256Z,100635.20
2019-03-28T16:25:10.162Z,100642.51
2019-03-28T16:27:37.096Z,100651.77
2019-03-28T16:30:07.071Z,100643.17
2019-03-28T16:32:33.736Z,100649.96
2019-03-28T16:35:00.607Z,100653.94
2019-03-28T16:37:27.810Z,100650.79
2019-03-28T16:39:54.756Z,100652.61
2019-03-28T16:42:21.486Z,100646.82
2019-03-28T16:44:49.278Z,100649.30
2019-03-28T16:47:16.108Z,100649.46
2019-03-28T16:49:42.997Z,100650.47
2019-03-28T16:52:09.727Z,100660.71
2019-03-28T16:54:36.475Z,100663.04
2019-03-28T16:57:03.453Z,100660.04
2019-03-28T16:59:30.359Z,100657.07
2019-03-28T17:01:57.136Z,100670.13
2019-03-28T17:04:23.946Z,100661.19
2019-03-28T17:06:56.906Z,100661.33
2019-03-28T17:10:40.907Z,100667.58
2019-03-28T17:13:16.417Z,100601.88
2019-03-28T17:15:43.309Z,100660.31
2019-03-28T17:18:10.028Z,100664.39
2019-03-28T17:20:36.884Z,100661.73
2019-03-28T17:23:03.686Z,100662.69
2019-03-28T17:25:32.701Z,100675.71
2019-03-28T17:27:59.467Z,100671.22
2019-03-28T17:30:26.983Z,100675.48
2019-03-28T17:32:54.033Z,100670.47
2019-03-28T17:35:20.993Z,100671.39
2019-03-28T17:37:47.693Z,100679.94
2019-03-28T17:40:14.429Z,100684.91
2019-03-28T17:42:41.173Z,100680.23
2019-03-28T17:45:08.083Z,100679.72
2019-03-28T17:47:34.970Z,100678.68
2019-03-28T17:50:01.837Z,100686.08
2019-03-28T17:52:28.607Z,100679.12
2019-03-28T17:54:55.465Z,100685.09
2019-03-28T17:57:22.195Z,100689.03
2019-03-28T17:59:49.038Z,100693.41
2019-03-28T18:02:15.879Z,100701.80
2019-03-28T18:04:48.229Z,100705.64
2019-03-28T18:07:11.363Z,100705.50
2019-03-28T18:09:38.285Z,100709.87
2019-03-28T18:12:04.995Z,100713.50
2019-03-28T18:14:31.871Z,100715.84
2019-03-28T18:16:59.548Z,100717.78
2019-03-28T18:19:26.387Z,100720.03
2019-03-28T18:22:03.264Z,100719.97
2019-03-28T18:24:21.920Z,100717.92
2019-03-28T18:26:48.862Z,100712.64
2019-03-28T18:29:19.005Z,100714.16
2019-03-28T18:31:50.295Z,100713.33
2019-03-28T18:34:13.046Z,100711.35
2019-03-28T18:36:39.834Z,100708.05
2019-03-28T18:39:06.636Z,100717.39
2019-03-28T18:41:33.364Z,100718.91
2019-03-28T18:44:00.123Z,100724.84
2019-03-28T18:46:26.895Z,100728.64
2019-03-28T18:48:53.632Z,100733.09
2019-03-28T18:51:20.400Z,100734.50
2019-03-28T18:53:47.146Z,100748.98
2019-03-28T18:56:13.889Z,100748.98
2019-03-28T18:58:40.677Z,100748.75
2019-03-28T19:01:07.881Z,100752.06
2019-03-28T19:03:35.719Z,100748.40
2019-03-28T19:06:02.624Z,100766.52
2019-03-28T19:08:29.350Z,100772.27
2019-03-28T19:10:56.150Z,100770.33
2019-03-28T19:13:23.026Z,100771.16
2019-03-28T19:15:50.150Z,100763.41
2019-03-28T19:18:16.966Z,100767.59
2019-03-28T19:20:43.717Z,100757.89
2019-03-28T19:23:10.440Z,100767.62
2019-03-28T19:25:37.218Z,100772.36
2019-03-28T19:28:07.265Z,100778.74
2019-03-28T19:30:33.390Z,100787.62
2019-03-28T19:33:00.373Z,100783.19
2019-03-28T19:35:32.925Z,100787.07
2019-03-28T19:37:56.000Z,100786.67
2019-03-28T19:40:22.771Z,100790.41
2019-03-28T19:42:49.752Z,100798.70
2019-03-28T19:45:20.670Z,100794.55
2019-03-28T19:47:47.438Z,100797.45
2019-03-28T19:50:25.353Z,100798.98
2019-03-28T19:52:52.193Z,100801.77
2019-03-28T19:55:22.128Z,100807.86
2019-03-28T19:57:48.882Z,100807.84
2019-03-28T20:00:15.659Z,100802.57
2019-03-28T20:02:42.534Z,100801.61
2019-03-28T20:05:09.364Z,100796.34
2019-03-28T20:07:36.040Z,100795.64
2019-03-28T20:10:15.788Z,100797.17
2019-03-28T20:12:32.549Z,100798.41
2019-03-28T20:15:00.347Z,100798.30
2019-03-28T20:17:27.441Z,100798.42
2019-03-28T20:19:54.826Z,100792.77
2019-03-28T20:22:21.845Z,100799.97
2019-03-28T20:24:48.796Z,100788.88
2019-03-28T20:27:15.579Z,100795.25
2019-03-28T20:29:42.371Z,100791.91
2019-03-28T20:32:09.197Z,100797.72
2019-03-28T20:34:36.168Z,100788.44
2019-03-28T20:37:03.115Z,100788.16
2019-03-28T20:39:29.961Z,100796.89
2019-03-28T20:41:56.728Z,100794.53
2019-03-28T20:44:23.505Z,100801.22
2019-03-28T20:46:50.273Z,100807.04
2019-03-28T20:49:17.009Z,100818.67
2019-03-28T20:51:43.798Z,100823.10
2019-03-28T20:54:10.688Z,100819.63
2019-03-28T20:56:37.522Z,100826.14
2019-03-28T20:59:04.273Z,100825.70
2019-03-28T21:01:31.173Z,100820.86
2019-03-28T21:03:58.182Z,100825.30
2019-03-28T21:06:24.949Z,100829.31
2019-03-28T21:08:51.734Z,100836.94
2019-03-28T21:11:18.501Z,100830.41
2019-03-28T21:13:45.776Z,100832.60
2019-03-28T21:16:12.600Z,100827.76
2019-03-28T21:18:39.389Z,100835.80
2019-03-28T21:21:06.165Z,100837.30
2019-03-28T21:23:32.880Z,100834.14
2019-03-28T21:25:59.671Z,100840.25
2019-03-28T21:28:26.406Z,100839.44
2019-03-28T21:30:53.178Z,100846.23
2019-03-28T21:33:19.937Z,100844.44
2019-03-28T21:35:47.189Z,100843.34
2019-03-28T21:38:13.949Z,100849.43
2019-03-28T21:40:40.799Z,100850.81
2019-03-28T21:43:07.547Z,100838.91
2019-03-28T21:45:34.401Z,100853.61
2019-03-28T21:48:01.165Z,100849.17
2019-03-28T21:50:27.883Z,100853.73
2019-03-28T21:52:54.724Z,100847.35
2019-03-28T21:55:21.477Z,100852.75
2019-03-28T21:57:48.208Z,100846.91
2019-03-28T22:00:15.510Z,100853.51
2019-03-28T22:02:42.293Z,100860.66
2019-03-28T22:05:09.051Z,100864.91
2019-03-28T22:07:35.771Z,100853.06
2019-03-28T22:10:08.345Z,100867.70
2019-03-28T22:12:33.419Z,100874.85
2019-03-28T22:15:00.356Z,100872.59
2019-03-28T22:17:27.564Z,100875.02
2019-03-28T22:19:54.277Z,100874.30
2019-03-28T22:22:21.215Z,100868.56
2019-03-28T22:24:47.948Z,100870.80
2019-03-28T22:27:14.801Z,100872.02
2019-03-28T22:29:41.676Z,100877.28
2019-03-28T22:32:11.567Z,100886.70
2019-03-28T22:34:37.199Z,100888.36
2019-03-28T22:37:04.427Z,100890.31
2019-03-28T22:39:31.161Z,100882.42
2019-03-28T22:41:58.013Z,100881.45
2019-03-28T22:44:25.034Z,100871.25
2019-03-28T22:46:51.986Z,100869.65
2019-03-28T22:49:18.751Z,100871.88
2019-03-28T22:51:45.545Z,100873.94
2019-03-28T22:54:12.303Z,100865.53
2019-03-28T22:56:39.063Z,100869.95
2019-03-28T22:59:05.816Z,100872.44
2019-03-28T23:01:32.653Z,100876.05
2019-03-28T23:03:59.505Z,100869.70
2019-03-28T23:06:26.294Z,100875.07
2019-03-28T23:08:53.002Z,100874.91
2019-03-28T23:11:19.935Z,100880.16
2019-03-28T23:13:46.696Z,100872.95
2019-03-28T23:16:13.503Z,100873.36
2019-03-28T23:18:40.217Z,100880.59
2019-03-28T23:21:06.929Z,100877.64
2019-03-28T23:23:33.740Z,100879.05
2019-03-28T23:26:00.463Z,100882.39
2019-03-28T23:28:27.214Z,100881.56
2019-03-28T23:30:54.221Z,100887.08
2019-03-28T23:33:21.674Z,100887.91
2019-03-28T23:35:48.722Z,100880.16
2019-03-28T23:38:15.545Z,100884.70
2019-03-28T23:40:42.250Z,100894.25
2019-03-28T23:43:09.293Z,100881.81
2019-03-28T23:45:36.698Z,100880.73
2019-03-28T23:48:03.457Z,100855.16
2019-03-28T23:50:30.302Z,100896.36
2019-03-28T23:52:57.182Z,100887.34
2019-03-28T23:55:25.355Z,100892.42
2019-03-28T23:57:52.142Z,100894.39
